Attila, Illinois
Current Conditions -  °F | °C
As of 8:35 PM on Friday 21 Nov 2014 (Local Time) from KMWA Reporting Station
Light Rain Light Rain  
Wind Chill: 45°   Ceiling: 2400
Heat Index: 45°   Visibility: 10mi
Dew Point: 28°   Wind: 0mph
Humidity: 53%   Direction: NA
Pressure: 30.32"   Gusts: NA
Location:  37.7887°N, 88.8655°W
Report Text: KMWA 220235Z AUTO 00000KT 10SM -RA BKN024 BKN033 OVC039 07/M02 A3032 RMK AO2
Loading
Personal Weather Stations






























Interactive Weather Map New forecast layout! Learn more

10-Day Weather Forecast

Advertisements
Track Severe Weather on mobile